Dades meteomassalio
Diari Summary for Gener 25, 2017 Units:  Metric    English   Both
« Previous Day
Next Day »
Diari Semanal Mensual Anual Personalitzat
  Maxima: Minima: Mijana:
Temperatura: -17.8 °C -18.7 °C -15.1 °C
Rosada: -17.8 °C -19.8 °C -18.9 °C
Humitat: Humidity % 44 % 62 %
Velocitat del vent: 0 km/h 0 km/h 16.4 km/h
Racha vent: 0 km/h - -
Vent:- - WNW
Pressio: 0 hPa 34486.4 hPa -
Pluja: 0 mm    
Historical Graphs
 
 
Tabular Data for Gener 25, 2017
Time Temperature Dew Point Pressure Wind Wind Speed Wind Gust Humidity Rainfall Rate (Hourly) solar Conditions
-17.8 °C -17.8 °C 0 hPa Calm     Humidity % 0 mm SolarRadiationWatts/m^2 W/m2 Conditions
00:02 -14.2 °C -17.8 °C 34645.6 hPa West 20.8 km/h 20.8 km/h 63 % 0 mm 0.0 W/m2 CLR
00:07 -14.2 °C -17.9 °C 34645.6 hPa West 47.6 km/h 47.6 km/h 62 % 0 mm 0.0 W/m2 CLR
00:12 -14.2 °C -17.9 °C 34645.6 hPa West 41.7 km/h 41.7 km/h 62 % 0 mm 0.0 W/m2 CLR
00:17 -14.2 °C -18 °C 34645.6 hPa West 38.8 km/h 38.8 km/h 62 % 0 mm 0.0 W/m2 CLR
00:22 -14.3 °C -18 °C 34645.6 hPa West 29.8 km/h 29.8 km/h 62 % 0 mm 0.0 W/m2 CLR
00:28 -14.3 °C -18 °C 34645.6 hPa West 26.9 km/h 26.9 km/h 62 % 0 mm 0.0 W/m2 CLR
00:33 -14.3 °C -18.1 °C 34645.6 hPa West 35.7 km/h 35.7 km/h 62 % 0 mm 0.0 W/m2 CLR
00:38 -14.4 °C -18.1 °C 34645.6 hPa WNW 31.1 km/h 31.1 km/h 62 % 0 mm 0.0 W/m2 CLR
00:43 -14.4 °C -18.2 °C 34635.4 hPa WNW 33.6 km/h 33.6 km/h 62 % 0 mm 0.0 W/m2 CLR
00:48 -14.3 °C -18.1 °C 34635.4 hPa WNW 38.8 km/h 38.8 km/h 62 % 0 mm 0.0 W/m2 CLR
00:53 -14.3 °C -18.1 °C 34635.4 hPa West 44.7 km/h 44.7 km/h 62 % 0 mm 0.0 W/m2 CLR
00:58 -14.3 °C -18.2 °C 34635.4 hPa West 38.8 km/h 38.8 km/h 61 % 0 mm 0.0 W/m2 CLR
01:03 -14.3 °C -18.2 °C 34635.4 hPa West 31.1 km/h 31.1 km/h 61 % 0 mm 0.0 W/m2 CLR
01:08 -14.3 °C -18.4 °C 34635.4 hPa West 38.8 km/h 38.8 km/h 60 % 0 mm 0.0 W/m2 CLR
01:13 -14.3 °C -18.4 °C 34625.2 hPa West 47.6 km/h 47.6 km/h 60 % 0 mm 0.0 W/m2 CLR
01:18 -14.4 °C -18.5 °C 34625.2 hPa West 32.8 km/h 32.8 km/h 59 % 0 mm 0.0 W/m2 CLR
01:23 -14.4 °C -18.6 °C 34625.2 hPa West 41.7 km/h 41.7 km/h 59 % 0 mm 0.0 W/m2 CLR
01:28 -14.3 °C -18.6 °C 34625.2 hPa West 32.8 km/h 32.8 km/h 58 % 0 mm 0.0 W/m2 CLR
01:33 -14.4 °C -18.7 °C 34625.2 hPa West 33.6 km/h 33.6 km/h 58 % 0 mm 0.0 W/m2 CLR
01:38 -14.4 °C -18.7 °C 34625.2 hPa West 35.7 km/h 35.7 km/h 58 % 0 mm 0.0 W/m2 CLR
01:43 -14.4 °C -18.7 °C 34625.2 hPa West 44.7 km/h 44.7 km/h 58 % 0 mm 0.0 W/m2 CLR
01:48 -14.4 °C -18.7 °C 34625.2 hPa West 32.8 km/h 32.8 km/h 58 % 0 mm 0.0 W/m2 CLR
01:53 -14.4 °C -18.7 °C 34625.2 hPa West 32.8 km/h 32.8 km/h 58 % 0 mm 0.0 W/m2 CLR
01:58 -14.5 °C -18.6 °C 34625.2 hPa WNW 29.8 km/h 29.8 km/h 59 % 0 mm 0.0 W/m2 CLR
02:03 -14.6 °C -18.7 °C 34625.2 hPa WNW 29.8 km/h 29.8 km/h 59 % 0 mm 0.0 W/m2 CLR
02:08 -14.6 °C -18.7 °C 34625.2 hPa WNW 26.9 km/h 26.9 km/h 59 % 0 mm 0.0 W/m2 CLR
02:13 -14.7 °C -18.8 °C 34625.2 hPa WNW 29.8 km/h 29.8 km/h 59 % 0 mm 0.0 W/m2 CLR
02:18 -14.7 °C -18.9 °C 34625.2 hPa West 26.9 km/h 26.9 km/h 58 % 0 mm 0.0 W/m2 CLR
02:23 -14.7 °C -18.9 °C 34611.7 hPa West 11.9 km/h 11.9 km/h 58 % 0 mm 0.0 W/m2 CLR
02:28 -14.7 °C -18.9 °C 34611.7 hPa WSW 2.6 km/h   58 % 0 mm 0.0 W/m2 CLR
02:33 -14.7 °C -19.1 °C 34625.2 hPa West 9 km/h   57 % 0 mm 0.0 W/m2 CLR
02:38 -14.7 °C -19.1 °C 34625.2 hPa Calm     57 % 0 mm 0.0 W/m2 CLR
02:43 -14.8 °C -19.1 °C 34611.7 hPa Calm     57 % 0 mm 0.0 W/m2 CLR
02:49 -14.8 °C -19.1 °C 34611.7 hPa Calm     57 % 0 mm 0.0 W/m2 CLR
02:54 -14.8 °C -19.1 °C 34611.7 hPa Calm     58 % 0 mm 0.0 W/m2 CLR
02:59 -14.9 °C -19.1 °C 34611.7 hPa WNW 7.7 km/h 7.7 km/h 58 % 0 mm 0.0 W/m2 CLR
03:04 -14.9 °C -19.2 °C 34611.7 hPa West 15 km/h 15 km/h 58 % 0 mm 0.0 W/m2 CLR
03:09 -14.9 °C -19.1 °C 34625.2 hPa West 9 km/h 9 km/h 59 % 0 mm 0.0 W/m2 CLR
03:14 -15 °C -19.1 °C 34611.7 hPa Calm     59 % 0 mm 0.0 W/m2 CLR
03:19 -15.1 °C -19.1 °C 34611.7 hPa Calm     59 % 0 mm 0.0 W/m2 CLR
03:24 -15.1 °C -19.1 °C 34611.7 hPa Calm     60 % 0 mm 0.0 W/m2 CLR
03:29 -15.2 °C -19.1 °C 34611.7 hPa Calm     60 % 0 mm 0.0 W/m2 CLR
03:34 -15.2 °C -19.1 °C 34601.5 hPa Calm     60 % 0 mm 0.0 W/m2 CLR
03:39 -15.2 °C -19.1 °C 34601.5 hPa Calm     61 % 0 mm 0.0 W/m2 CLR
03:44 -15.3 °C -19.1 °C 34601.5 hPa Calm     62 % 0 mm 0.0 W/m2 CLR
03:49 -15.4 °C -19.2 °C 34601.5 hPa Calm     62 % 0 mm 0.0 W/m2 CLR
03:54 -15.5 °C -19.1 °C 34601.5 hPa Calm     63 % 0 mm 0.0 W/m2 CLR
03:59 -15.6 °C -19.1 °C 34601.5 hPa Calm     63 % 0 mm 0.0 W/m2 CLR
04:04 -15.5 °C -19.1 °C 34601.5 hPa Calm     63 % 0 mm 0.0 W/m2 CLR
04:09 -15.6 °C -19.2 °C 34601.5 hPa Calm     62 % 0 mm 0.0 W/m2 CLR
04:14 -15.6 °C -19.2 °C 34601.5 hPa Calm     63 % 0 mm 0.0 W/m2 CLR
04:19 -15.7 °C -19.2 °C 34601.5 hPa Calm     64 % 0 mm 0.0 W/m2 CLR
04:24 -15.8 °C -19.2 °C 34601.5 hPa Calm     64 % 0 mm 0.0 W/m2 CLR
04:29 -15.8 °C -19.3 °C 34601.5 hPa Calm     64 % 0 mm 0.0 W/m2 CLR
04:34 -15.9 °C -19.2 °C 34601.5 hPa Calm     65 % 0 mm 0.0 W/m2 CLR
04:39 -16 °C -19.3 °C 34601.5 hPa Calm     65 % 0 mm 0.0 W/m2 CLR
04:44 -15.9 °C -19.2 °C 34601.5 hPa Calm     65 % 0 mm 0.0 W/m2 CLR
04:49 -15.7 °C -19.3 °C 34601.5 hPa WNW 23.8 km/h 23.8 km/h 62 % 0 mm 0.0 W/m2 CLR
04:54 -15.3 °C -19.4 °C 34601.5 hPa WNW 29.8 km/h 29.8 km/h 59 % 0 mm 0.0 W/m2 CLR
04:59 -15.2 °C -19.4 °C 34601.5 hPa WNW 25.9 km/h 25.9 km/h 58 % 0 mm 0.0 W/m2 CLR
05:04 -15.2 °C -19.5 °C 34591.4 hPa WNW 35.7 km/h 35.7 km/h 57 % 0 mm 0.0 W/m2 CLR
05:09 -15.1 °C -19.6 °C 34601.5 hPa NW 44.7 km/h 44.7 km/h 56 % 0 mm 0.0 W/m2 CLR
05:14 -15.1 °C -19.5 °C 34591.4 hPa NW 47.6 km/h 47.6 km/h 56 % 0 mm 0.0 W/m2 CLR
05:20 -15 °C -19.6 °C 34591.4 hPa WNW 38.8 km/h 38.8 km/h 55 % 0 mm 0.0 W/m2 CLR
05:25 -15 °C -19.6 °C 34591.4 hPa WNW 32.8 km/h 32.8 km/h 55 % 0 mm 0.0 W/m2 CLR
05:30 -15 °C -19.6 °C 34591.4 hPa WNW 26.9 km/h 26.9 km/h 55 % 0 mm 0.0 W/m2 CLR
05:35 -15.1 °C -19.7 °C 34601.5 hPa WNW 17.9 km/h 17.9 km/h 55 % 0 mm 0.0 W/m2 CLR
05:40 -15.1 °C -19.6 °C 34601.5 hPa West 17.9 km/h 17.9 km/h 56 % 0 mm 0.0 W/m2 CLR
05:45 -15.2 °C -19.7 °C 34591.4 hPa West 17.9 km/h 17.9 km/h 56 % 0 mm 0.0 W/m2 CLR
05:50 -15.2 °C -19.7 °C 34591.4 hPa West 23.8 km/h 23.8 km/h 56 % 0 mm 0.0 W/m2 CLR
05:55 -15.3 °C -19.6 °C 34591.4 hPa WNW 15 km/h 15 km/h 57 % 0 mm 0.0 W/m2 CLR
06:00 -15.3 °C -19.7 °C 34591.4 hPa NW 17.9 km/h 17.9 km/h 57 % 0 mm 0.0 W/m2 CLR
06:05 -15.3 °C -19.7 °C 34591.4 hPa NW 17.9 km/h 17.9 km/h 57 % 0 mm 0.0 W/m2 CLR
06:10 -15.3 °C -19.7 °C 34591.4 hPa NW 29.8 km/h 29.8 km/h 57 % 0 mm 0.0 W/m2 CLR
06:15 -15.3 °C -19.7 °C 34591.4 hPa NW 18.2 km/h 18.2 km/h 57 % 0 mm 0.0 W/m2 CLR
06:20 -15.4 °C -19.6 °C 34601.5 hPa NW 25.9 km/h 25.9 km/h 58 % 0 mm 0.0 W/m2 CLR
06:25 -15.5 °C -19.7 °C 34601.5 hPa WNW 35.7 km/h 35.7 km/h 58 % 0 mm 0.0 W/m2 CLR
06:30 -15.4 °C -19.8 °C 34601.5 hPa WNW 29.8 km/h 29.8 km/h 57 % 0 mm 0.0 W/m2 CLR
06:35 -15.4 °C -19.7 °C 34601.5 hPa WNW 17.9 km/h 17.9 km/h 57 % 0 mm 0.0 W/m2 CLR
06:40 -15.4 °C -19.7 °C 34591.4 hPa WNW 11.9 km/h 11.9 km/h 58 % 0 mm 0.0 W/m2 CLR
06:45 -15.5 °C -19.7 °C 34601.5 hPa WNW 17.9 km/h 17.9 km/h 58 % 0 mm 0.0 W/m2 CLR
06:50 -15.6 °C -19.6 °C 34601.5 hPa WNW 23.3 km/h 23.3 km/h 59 % 0 mm 0.0 W/m2 CLR
06:55 -15.6 °C -19.6 °C 34601.5 hPa WNW 26.9 km/h 26.9 km/h 59 % 0 mm 0.0 W/m2 CLR
07:00 -15.5 °C -19.7 °C 34591.4 hPa WNW 23.3 km/h 23.3 km/h 58 % 0 mm 0.0 W/m2 CLR
07:05 -15.4 °C -19.7 °C 34601.5 hPa West 26.9 km/h 26.9 km/h 58 % 0 mm 0.0 W/m2 CLR
07:10 -15.4 °C -19.8 °C 34601.5 hPa West 23.8 km/h 23.8 km/h 57 % 0 mm 0.0 W/m2 CLR
07:15 -15.5 °C -19.8 °C 34601.5 hPa West 26.9 km/h 26.9 km/h 57 % 0 mm 0.0 W/m2 CLR
07:20 -15.5 °C -19.7 °C 34601.5 hPa West 26.9 km/h 26.9 km/h 58 % 0 mm 0.0 W/m2 CLR
07:25 -15.5 °C -19.7 °C 34601.5 hPa West 29.8 km/h 29.8 km/h 58 % 0 mm 0.0 W/m2 CLR
07:30 -15.6 °C -19.8 °C 34601.5 hPa WNW 32.8 km/h 32.8 km/h 58 % 0 mm 0.0 W/m2 CLR
07:35 -15.6 °C -19.6 °C 34601.5 hPa West 29.8 km/h 29.8 km/h 59 % 0 mm 0.0 W/m2 CLR
07:40 -15.6 °C -19.7 °C 34601.5 hPa West 35.7 km/h 35.7 km/h 59 % 0 mm 0.0 W/m2 CLR
07:45 -15.6 °C -19.6 °C 34601.5 hPa West 44.7 km/h 44.7 km/h 60 % 0 mm 0.0 W/m2 CLR
07:50 -15.7 °C -19.6 °C 34601.5 hPa West 29.8 km/h 29.8 km/h 60 % 0 mm 0.0 W/m2 CLR
07:55 -15.7 °C -19.5 °C 34601.5 hPa West 32.8 km/h 32.8 km/h 61 % 0 mm 0.0 W/m2 CLR
08:00 -15.7 °C -19.4 °C 34601.5 hPa West 32.8 km/h 32.8 km/h 62 % 0 mm 0.0 W/m2 CLR
08:05 -15.7 °C -19.5 °C 34601.5 hPa West 41.7 km/h 41.7 km/h 61 % 0 mm 0.0 W/m2 CLR
08:10 -15.7 °C -19.4 °C 34601.5 hPa WNW 35.7 km/h 35.7 km/h 61 % 0 mm 0.0 W/m2 OVC
08:15 -15.7 °C -19.4 °C 34601.5 hPa WNW 29.8 km/h 29.8 km/h 61 % 0 mm 0.0 W/m2 OVC
08:20 -15.7 °C -19.5 °C 34601.5 hPa West 29.8 km/h 29.8 km/h 61 % 0 mm 0.0 W/m2 OVC
08:25 -15.7 °C -19.5 °C 34601.5 hPa WNW 29.8 km/h 29.8 km/h 61 % 0 mm 5.0 W/m2 BKN
08:30 -15.8 °C -19.4 °C 34601.5 hPa WNW 36.2 km/h 36.2 km/h 62 % 0 mm 9.0 W/m2 BKN
08:35 -15.7 °C -19.4 °C 34601.5 hPa WNW 28.5 km/h 28.5 km/h 62 % 0 mm 11.0 W/m2 BKN
08:40 -15.7 °C -19.6 °C 34601.5 hPa WNW 26.9 km/h 26.9 km/h 60 % 0 mm 14.0 W/m2 BKN
08:45 -15.6 °C -19.5 °C 34601.5 hPa West 26.9 km/h 26.9 km/h 60 % 0 mm 18.0 W/m2 BKN
08:50 -15.5 °C -19.6 °C 34601.5 hPa West 23.8 km/h 23.8 km/h 59 % 0 mm 23.0 W/m2 BKN
08:55 -15.5 °C -19.6 °C 34601.5 hPa West 29.8 km/h 29.8 km/h 59 % 0 mm 33.0 W/m2 BKN
09:00 -15.4 °C -19.5 °C 34601.5 hPa West 28.5 km/h 28.5 km/h 59 % 0 mm 40.0 W/m2 BKN
09:05 -15.4 °C -19.6 °C 34611.7 hPa WNW 23.3 km/h 23.3 km/h 58 % 0 mm 56.0 W/m2 BKN
09:10 -15.4 °C -19.6 °C 34601.5 hPa West 26.9 km/h 26.9 km/h 58 % 0 mm 65.0 W/m2 BKN
09:15 -15.3 °C -19.6 °C 34601.5 hPa WNW 38.8 km/h 38.8 km/h 58 % 0 mm 69.0 W/m2 BKN
09:20 -15.3 °C -19.5 °C 34611.7 hPa West 20.9 km/h 20.9 km/h 58 % 0 mm 97.0 W/m2 BKN
09:25 -15.2 °C -19.4 °C 34611.7 hPa West 20.9 km/h 20.9 km/h 58 % 0 mm 109.0 W/m2 BKN
09:30 -15.2 °C -19.4 °C 34611.7 hPa WNW 23.8 km/h 23.8 km/h 58 % 0 mm 125.0 W/m2 BKN
09:31 -15.2 °C -19.4 °C 34611.7 hPa WNW 23.8 km/h 23.8 km/h 58 % 0 mm 127.0 W/m2 BKN
09:36 -15.2 °C -19.4 °C 34611.7 hPa WNW 29.8 km/h 29.8 km/h 58 % 0 mm 141.0 W/m2 BKN
09:41 -15.2 °C -19.4 °C 34611.7 hPa WNW 38.8 km/h 38.8 km/h 58 % 0 mm 100.0 W/m2 SCT
09:46 -15.2 °C -19.3 °C 34601.5 hPa WNW 29.8 km/h 29.8 km/h 58 % 0 mm 169.0 W/m2 SCT
09:51 -15.1 °C -19.3 °C 34611.7 hPa WNW 32.8 km/h 32.8 km/h 58 % 0 mm 134.0 W/m2 SCT
09:56 -15.2 °C -19.3 °C 34611.7 hPa WNW 23.8 km/h 23.8 km/h 58 % 0 mm 171.0 W/m2 BKN
10:01 -15.1 °C -19.2 °C 34611.7 hPa NW 32.8 km/h 32.8 km/h 59 % 0 mm 223.0 W/m2 BKN
10:06 -15.1 °C -19.1 °C 34611.7 hPa WNW 29.8 km/h 29.8 km/h 60 % 0 mm 237.0 W/m2 SCT
10:11 -15.1 °C -19.1 °C 34611.7 hPa NW 29.8 km/h 29.8 km/h 60 % 0 mm 251.0 W/m2 SCT
10:16 -15.1 °C -19.1 °C 34611.7 hPa NW 29.8 km/h 29.8 km/h 60 % 0 mm 267.0 W/m2 SCT
10:21 -15.1 °C -19.1 °C 34611.7 hPa WNW 32.8 km/h 32.8 km/h 59 % 0 mm 279.0 W/m2 SCT
10:26 -15 °C -18.9 °C 34611.7 hPa WNW 25.9 km/h 25.9 km/h 60 % 0 mm 290.0 W/m2 SCT
10:31 -14.9 °C -19.1 °C 34611.7 hPa WNW 17.9 km/h 17.9 km/h 59 % 0 mm 302.0 W/m2 SCT
10:36 -14.9 °C -19 °C 34611.7 hPa WNW 26.9 km/h 26.9 km/h 59 % 0 mm 313.0 W/m2 SCT
10:41 -14.8 °C -18.8 °C 34611.7 hPa NW 17.9 km/h 17.9 km/h 60 % 0 mm 325.0 W/m2 FEW
10:46 -14.8 °C -18.9 °C 34611.7 hPa NW 26.9 km/h 26.9 km/h 59 % 0 mm 332.0 W/m2 FEW
10:51 -14.8 °C -18.8 °C 34611.7 hPa NW 20.9 km/h 20.9 km/h 60 % 0 mm 345.0 W/m2 CLR
10:56 -14.8 °C -18.7 °C 34611.7 hPa NW 15.6 km/h 15.6 km/h 60 % 0 mm 355.0 W/m2 CLR
11:01 -14.7 °C -18.7 °C 34601.5 hPa NW 29.8 km/h 29.8 km/h 60 % 0 mm 367.0 W/m2 CLR
11:06 -14.7 °C -18.8 °C 34601.5 hPa NW 17.9 km/h 17.9 km/h 59 % 0 mm 376.0 W/m2 CLR
11:11 -14.6 °C -18.5 °C 34601.5 hPa NW 20.9 km/h 20.9 km/h 60 % 0 mm 383.0 W/m2 CLR
11:16 -14.5 °C -18.8 °C 34601.5 hPa NW 29.8 km/h 29.8 km/h 58 % 0 mm 392.0 W/m2 CLR
11:21 -14.4 °C -18.7 °C 34601.5 hPa NW 23.8 km/h 23.8 km/h 58 % 0 mm 404.0 W/m2 CLR
11:26 -14.3 °C -18.6 °C 34601.5 hPa NW 20.9 km/h 20.9 km/h 58 % 0 mm 413.0 W/m2 CLR
11:31 -14.2 °C -18.8 °C 34601.5 hPa West 25.9 km/h 25.9 km/h 56 % 0 mm 420.0 W/m2 CLR
11:36 -14.2 °C -18.4 °C 34601.5 hPa WNW 20.9 km/h 20.9 km/h 58 % 0 mm 427.0 W/m2 CLR
11:41 -14.1 °C -18.9 °C 34601.5 hPa WNW 28.5 km/h 28.5 km/h 54 % 0 mm 434.0 W/m2 CLR
11:46 -14.1 °C -18.9 °C 34591.4 hPa WNW 38.8 km/h 38.8 km/h 54 % 0 mm 441.0 W/m2 CLR
11:51 -14.2 °C -19.1 °C 34591.4 hPa West 35.7 km/h 35.7 km/h 53 % 0 mm 448.0 W/m2 CLR
11:56 -14.1 °C -18.9 °C 34591.4 hPa West 17.9 km/h 17.9 km/h 54 % 0 mm 454.0 W/m2 CLR
12:01 -14.1 °C -18.6 °C 34591.4 hPa NW 29.8 km/h 29.8 km/h 56 % 0 mm 457.0 W/m2 CLR
12:06 -14.1 °C -18.8 °C 34591.4 hPa NW 29.8 km/h 29.8 km/h 55 % 0 mm 466.0 W/m2 CLR
12:14 -14 °C -18.4 °C 34577.8 hPa NW 31.1 km/h 31.1 km/h 57 % 0 mm 473.0 W/m2 CLR
12:19 -14.1 °C -18.6 °C 34577.8 hPa WNW 29.8 km/h 29.8 km/h 56 % 0 mm 475.0 W/m2 OVC
12:24 -14.1 °C -18.5 °C 34577.8 hPa NW 23.8 km/h 23.8 km/h 57 % 0 mm 476.0 W/m2 CLR
12:29 -14 °C -18.4 °C 34567.7 hPa WNW 29.8 km/h 29.8 km/h 57 % 0 mm 478.0 W/m2 OVC
12:34 -14 °C -18.5 °C 34567.7 hPa NW 29.8 km/h 29.8 km/h 56 % 0 mm 478.0 W/m2 OVC
12:39 -14 °C -18.5 °C 34567.7 hPa NW 29.8 km/h 29.8 km/h 56 % 0 mm 478.0 W/m2 OVC
12:44 -13.8 °C -18.6 °C 34567.7 hPa NW 20.8 km/h 20.8 km/h 55 % 0 mm 492.0 W/m2 CLR
12:49 -13.8 °C -18.4 °C 34567.7 hPa NNW 20.9 km/h 20.9 km/h 55 % 0 mm 494.0 W/m2 CLR
12:54 -13.7 °C -18.6 °C 34567.7 hPa NW 12.9 km/h 12.9 km/h 54 % 0 mm 492.0 W/m2 CLR
12:59 -13.6 °C -18.3 °C 34554.1 hPa NW 41.7 km/h 41.7 km/h 55 % 0 mm 497.0 W/m2 CLR
13:04 -13.6 °C -18.3 °C 34554.1 hPa NNW 32.8 km/h 32.8 km/h 55 % 0 mm 496.0 W/m2 CLR
13:09 -13.6 °C -18.3 °C 34554.1 hPa NNW 20.9 km/h 20.9 km/h 55 % 0 mm 499.0 W/m2 CLR
13:14 -13.5 °C -18.3 °C 34544 hPa NW 20.8 km/h 20.8 km/h 54 % 0 mm 497.0 W/m2 CLR
13:19 -13.4 °C -18.4 °C 34544 hPa NW 23.8 km/h 23.8 km/h 53 % 0 mm 497.0 W/m2 CLR
13:24 -13.4 °C -18.3 °C 34544 hPa Calm     54 % 0 mm 499.0 W/m2 CLR
13:29 -13.3 °C -18.3 °C 34533.8 hPa Calm     53 % 0 mm 499.0 W/m2 CLR
13:34 -13.2 °C -18.1 °C 34533.8 hPa NW 20.9 km/h 20.9 km/h 54 % 0 mm 503.0 W/m2 CLR
13:39 -13.1 °C -18.1 °C 34533.8 hPa WNW 23.8 km/h 23.8 km/h 53 % 0 mm 497.0 W/m2 CLR
13:45 -13.1 °C -18.2 °C 34533.8 hPa NW 17.9 km/h 17.9 km/h 52 % 0 mm 496.0 W/m2 CLR
13:50 -13.1 °C -18.3 °C 34520.3 hPa NW 23.8 km/h 24.1 km/h 52 % 0 mm 490.0 W/m2 CLR
13:55 -13.1 °C -17.9 °C 34520.3 hPa NNW 23.3 km/h 23.3 km/h 55 % 0 mm 490.0 W/m2 CLR
14:00 -13.2 °C -17.9 °C 34520.3 hPa NW 15 km/h   55 % 0 mm 482.0 W/m2 CLR
14:05 -13 °C -17.9 °C 34520.3 hPa Calm     54 % 0 mm 478.0 W/m2 CLR
14:10 -13 °C -18.2 °C 34510.1 hPa NNW 26.9 km/h 26.9 km/h 52 % 0 mm 475.0 W/m2 CLR
14:15 -13 °C -18.2 °C 34510.1 hPa NW 29.8 km/h 29.8 km/h 52 % 0 mm 468.0 W/m2 CLR
14:20 -12.9 °C -18.1 °C 34510.1 hPa NW 15 km/h   52 % 0 mm 464.0 W/m2 CLR
14:25 -12.8 °C -18 °C 34510.1 hPa NW 26.9 km/h 26.9 km/h 52 % 0 mm 457.0 W/m2 CLR
14:30 -12.8 °C -18.2 °C 34510.1 hPa NW 23.8 km/h 23.8 km/h 51 % 0 mm 454.0 W/m2 CLR
14:35 -12.9 °C -17.9 °C 34496.6 hPa NNW 26.9 km/h 26.9 km/h 53 % 0 mm 450.0 W/m2 CLR
14:40 -12.9 °C -17.9 °C 34496.6 hPa NNW 29.8 km/h 29.8 km/h 53 % 0 mm 448.0 W/m2 CLR
14:45 -12.9 °C -18.2 °C 34496.6 hPa NW 20.9 km/h 20.9 km/h 52 % 0 mm 441.0 W/m2 CLR
14:50 -12.9 °C -18.2 °C 34496.6 hPa NW 20.9 km/h 20.9 km/h 52 % 0 mm 425.0 W/m2 CLR
14:55 -12.9 °C -17.8 °C 34496.6 hPa NW 18.2 km/h 18.2 km/h 54 % 0 mm 418.0 W/m2 CLR
15:00 -12.9 °C -18.1 °C 34496.6 hPa NW 29.8 km/h 29.8 km/h 52 % 0 mm 411.0 W/m2 CLR
15:05 -12.9 °C -18.4 °C 34496.6 hPa NW 29.8 km/h 29.8 km/h 50 % 0 mm 404.0 W/m2 CLR
15:10 -12.9 °C -18.3 °C 34496.6 hPa NW 32.8 km/h 32.8 km/h 51 % 0 mm 396.0 W/m2 CLR
15:15 -12.9 °C -18.2 °C 34486.4 hPa NW 23.8 km/h 23.8 km/h 51 % 0 mm 390.0 W/m2 CLR
15:20 -12.8 °C -18.2 °C 34486.4 hPa NW 11.9 km/h 12.9 km/h 51 % 0 mm 383.0 W/m2 CLR
15:25 -12.8 °C -18.3 °C 34486.4 hPa NW 20.9 km/h 20.9 km/h 50 % 0 mm 364.0 W/m2 CLR
15:30 -12.7 °C -18.1 °C 34486.4 hPa NW 18.2 km/h 18.2 km/h 51 % 0 mm 355.0 W/m2 CLR
15:35 -12.7 °C -18.2 °C 34486.4 hPa NW 23.8 km/h 23.8 km/h 50 % 0 mm 348.0 W/m2 CLR
15:40 -12.7 °C -18.5 °C 34486.4 hPa NW 29.8 km/h 29.8 km/h 48 % 0 mm 334.0 W/m2 CLR
15:45 -12.8 °C -18.4 °C 34486.4 hPa NW 17.9 km/h 17.9 km/h 49 % 0 mm 329.0 W/m2 CLR
15:50 -12.8 °C -18.6 °C 34486.4 hPa NW 26.9 km/h 26.9 km/h 48 % 0 mm 320.0 W/m2 CLR
15:55 -12.8 °C -18.4 °C 34486.4 hPa NW 31.1 km/h 31.1 km/h 49 % 0 mm 309.0 W/m2 CLR
16:00 -12.8 °C -18.8 °C 34486.4 hPa NNW 31.1 km/h 31.1 km/h 47 % 0 mm 295.0 W/m2 CLR
16:05 -12.8 °C -18.6 °C 34486.4 hPa NW 29.8 km/h 29.8 km/h 48 % 0 mm 283.0 W/m2 CLR
16:10 -12.8 °C -18.6 °C 34486.4 hPa NW 29.8 km/h 29.8 km/h 48 % 0 mm 272.0 W/m2 CLR
16:15 -12.8 °C -18.7 °C 34486.4 hPa NNW 29.8 km/h 29.8 km/h 47 % 0 mm 257.0 W/m2 CLR
16:20 -12.8 °C -18.6 °C 34486.4 hPa NNW 20.9 km/h 20.9 km/h 48 % 0 mm 241.0 W/m2 CLR
16:25 -12.8 °C -18.9 °C 34486.4 hPa NW 26.9 km/h 26.9 km/h 46 % 0 mm 229.0 W/m2 CLR
16:30 -12.7 °C -18.5 °C 34486.4 hPa WNW 20.9 km/h 20.9 km/h 48 % 0 mm 211.0 W/m2 CLR
16:35 -12.7 °C -18.8 °C 34486.4 hPa WNW 26.9 km/h 26.9 km/h 46 % 0 mm 199.0 W/m2 CLR
16:40 -12.8 °C -19.1 °C 34486.4 hPa WNW 17.9 km/h 17.9 km/h 45 % 0 mm 181.0 W/m2 CLR
16:45 -12.7 °C -19.2 °C 34486.4 hPa WNW 9 km/h 9 km/h 44 % 0 mm 167.0 W/m2 CLR
16:50 -12.7 °C -19 °C 34486.4 hPa NW 9 km/h 9 km/h 45 % 0 mm 149.0 W/m2 CLR
16:55 -12.8 °C -19.1 °C 34486.4 hPa NW 15 km/h 15 km/h 45 % 0 mm 135.0 W/m2 CLR
17:00 -12.8 °C -18.8 °C 34486.4 hPa NW 3.1 km/h 3.1 km/h 47 % 0 mm 118.0 W/m2 CLR
17:05 -12.7 °C -19.2 °C 34486.4 hPa Calm     44 % 0 mm 104.0 W/m2 CLR
17:10 -12.7 °C -19 °C 34486.4 hPa Calm     45 % 0 mm 91.0 W/m2 CLR
17:15 -12.7 °C -18.8 °C 34486.4 hPa Calm     46 % 0 mm 77.0 W/m2 FEW
17:20 -12.8 °C -19.2 °C 34486.4 hPa Calm     44 % 0 mm 58.0 W/m2 SCT
17:25 -12.8 °C -19.1 °C 34496.6 hPa Calm     45 % 0 mm 53.0 W/m2 SCT
17:30 -12.8 °C -18.9 °C 34496.6 hPa Calm     46 % 0 mm 40.0 W/m2 BKN
17:35 -12.9 °C -19.2 °C 34496.6 hPa Calm     45 % 0 mm 32.0 W/m2 BKN
17:40 -13 °C -18.8 °C 34496.6 hPa Calm     48 % 0 mm 23.0 W/m2 BKN
17:45 -13.2 °C -18.8 °C 34496.6 hPa Calm     49 % 0 mm 16.0 W/m2 BKN
17:50 -13.3 °C -19.3 °C 34496.6 hPa Calm     46 % 0 mm 14.0 W/m2 BKN
17:55 -13.3 °C -18.9 °C 34496.6 hPa Calm     49 % 0 mm 11.0 W/m2 BKN
17:56 -13.4 °C -18.9 °C 34496.6 hPa Calm     49 % 0 mm 11.0 W/m2 BKN
18:01 -13.4 °C -19.1 °C 34496.6 hPa Calm     49 % 0 mm 9.0 W/m2 BKN
18:06 -13.6 °C -18.8 °C 34496.6 hPa Calm     51 % 0 mm 5.0 W/m2 OVC
18:11 -13.7 °C -18.8 °C 34510.1 hPa Calm     52 % 0 mm 0.0 W/m2 OVC
18:16 -13.9 °C -18.8 °C 34510.1 hPa Calm     53 % 0 mm 0.0 W/m2 OVC
18:21 -14 °C -19 °C 34510.1 hPa Calm     53 % 0 mm 0.0 W/m2 CLR
18:26 -14.1 °C -18.7 °C 34510.1 hPa Calm     56 % 0 mm 0.0 W/m2 CLR
18:31 -14.4 °C -18.5 °C 34510.1 hPa Calm     59 % 0 mm 0.0 W/m2 CLR
18:36 -14.6 °C -18.5 °C 34510.1 hPa Calm     61 % 0 mm 0.0 W/m2 CLR
18:41 -14.8 °C -18.6 °C 34510.1 hPa Calm     62 % 0 mm 0.0 W/m2 CLR
18:46 -15.1 °C -18.5 °C 34510.1 hPa Calm     64 % 0 mm 0.0 W/m2 CLR
18:51 -15.2 °C -18.3 °C 34520.3 hPa Calm     67 % 0 mm 0.0 W/m2 CLR
18:56 -15.4 °C -18.2 °C 34510.1 hPa Calm     69 % 0 mm 0.0 W/m2 CLR
19:01 -15.5 °C -18.3 °C 34520.3 hPa Calm     70 % 0 mm 0.0 W/m2 CLR
19:06 -15.7 °C -18.3 °C 34520.3 hPa Calm     71 % 0 mm 0.0 W/m2 CLR
19:11 -15.8 °C -18.4 °C 34520.3 hPa Calm     71 % 0 mm 0.0 W/m2 CLR
19:16 -15.9 °C -18.4 °C 34520.3 hPa Calm     72 % 0 mm 0.0 W/m2 CLR
19:21 -16 °C -18.4 °C 34520.3 hPa Calm     73 % 0 mm 0.0 W/m2 CLR
19:26 -16.2 °C -18.6 °C 34520.3 hPa Calm     74 % 0 mm 0.0 W/m2 CLR
19:31 -16.4 °C -18.7 °C 34533.8 hPa Calm     75 % 0 mm 0.0 W/m2 CLR
19:36 -16.5 °C -18.6 °C 34533.8 hPa Calm     76 % 0 mm 0.0 W/m2 CLR
19:41 -16.6 °C -18.6 °C 34533.8 hPa Calm     77 % 0 mm 0.0 W/m2 CLR
19:46 -16.6 °C -18.6 °C 34533.8 hPa Calm     77 % 0 mm 0.0 W/m2 CLR
19:51 -16.7 °C -18.6 °C 34533.8 hPa Calm     78 % 0 mm 0.0 W/m2 CLR
19:56 -16.7 °C -18.7 °C 34544 hPa Calm     78 % 0 mm 0.0 W/m2 CLR
20:01 -16.8 °C -18.7 °C 34544 hPa Calm     79 % 0 mm 0.0 W/m2 CLR
20:06 -16.9 °C -18.8 °C 34544 hPa Calm     78 % 0 mm 0.0 W/m2 CLR
20:11 -16.9 °C -18.8 °C 34544 hPa Calm     78 % 0 mm 0.0 W/m2 CLR
20:16 -16.9 °C -18.7 °C 34544 hPa Calm     79 % 0 mm 0.0 W/m2 CLR
20:21 -17 °C -18.8 °C 34554.1 hPa Calm     79 % 0 mm 0.0 W/m2 CLR
20:26 -17.1 °C -18.8 °C 34554.1 hPa Calm     79 % 0 mm 0.0 W/m2 CLR
20:31 -17.1 °C -18.9 °C 34554.1 hPa Calm     79 % 0 mm 0.0 W/m2 CLR
20:36 -17.1 °C -18.9 °C 34554.1 hPa Calm     79 % 0 mm 0.0 W/m2 CLR
20:41 -17.1 °C -18.8 °C 34554.1 hPa Calm     79 % 0 mm 0.0 W/m2 CLR
20:46 -17 °C -18.9 °C 34554.1 hPa Calm     78 % 0 mm 0.0 W/m2 CLR
20:51 -17.1 °C -19 °C 34554.1 hPa Calm     78 % 0 mm 0.0 W/m2 CLR
20:56 -17.3 °C -19.1 °C 34554.1 hPa Calm     79 % 0 mm 0.0 W/m2 CLR
21:01 -17.4 °C -19.1 °C 34554.1 hPa Calm     80 % 0 mm 0.0 W/m2 CLR
21:06 -17.6 °C -19.1 °C 34554.1 hPa Calm     82 % 0 mm 0.0 W/m2 CLR
21:11 -17.6 °C -19.1 °C 34554.1 hPa Calm     82 % 0 mm 0.0 W/m2 CLR
21:16 -17.7 °C -19.2 °C 34567.7 hPa Calm     82 % 0 mm 0.0 W/m2 CLR
21:21 -17.7 °C -19.2 °C 34567.7 hPa Calm     82 % 0 mm 0.0 W/m2 CLR
21:26 -17.7 °C -19.1 °C 34567.7 hPa Calm     83 % 0 mm 0.0 W/m2 CLR
21:31 -17.8 °C -19.2 °C 34567.7 hPa Calm     83 % 0 mm 0.0 W/m2 CLR
21:36 -17.7 °C -19.1 °C 34567.7 hPa Calm     83 % 0 mm 0.0 W/m2 CLR
21:41 -17.8 °C -19.2 °C 34567.7 hPa Calm     83 % 0 mm 0.0 W/m2 CLR
21:46 -17.9 °C -19.3 °C 34567.7 hPa Calm     83 % 0 mm 0.0 W/m2 CLR
21:51 -17.9 °C -19.3 °C 34567.7 hPa Calm     84 % 0 mm 0.0 W/m2 CLR
21:56 -18 °C -19.3 °C 34567.7 hPa Calm     84 % 0 mm 0.0 W/m2 CLR
22:01 -18 °C -19.2 °C 34567.7 hPa Calm     85 % 0 mm 0.0 W/m2 CLR
22:06 -18 °C -19.3 °C 34567.7 hPa Calm     85 % 0 mm 0.0 W/m2 CLR
22:11 -18.1 °C -19.3 °C 34567.7 hPa Calm     85 % 0 mm 0.0 W/m2 CLR
22:16 -18.1 °C -19.3 °C 34577.8 hPa Calm     85 % 0 mm 0.0 W/m2 CLR
22:21 -18.1 °C -19.3 °C 34577.8 hPa Calm     85 % 0 mm 0.0 W/m2 CLR
22:26 -18.2 °C -19.4 °C 34577.8 hPa Calm     85 % 0 mm 0.0 W/m2 CLR
22:31 -18.2 °C -19.3 °C 34577.8 hPa Calm     86 % 0 mm 0.0 W/m2 CLR
22:36 -18.2 °C -19.3 °C 34577.8 hPa Calm     86 % 0 mm 0.0 W/m2 CLR
22:41 -18.1 °C -19.3 °C 34577.8 hPa Calm     85 % 0 mm 0.0 W/m2 CLR
22:46 -18.2 °C -19.4 °C 34577.8 hPa Calm     85 % 0 mm 0.0 W/m2 CLR
22:51 -18.2 °C -19.4 °C 34577.8 hPa Calm     86 % 0 mm 0.0 W/m2 CLR
22:52 -18.2 °C -19.4 °C 34577.8 hPa Calm     86 % 0 mm 0.0 W/m2 CLR
22:57 -18.3 °C -19.4 °C 34577.8 hPa Calm     86 % 0 mm 0.0 W/m2 CLR
23:02 -18.3 °C -19.4 °C 34577.8 hPa Calm     86 % 0 mm 0.0 W/m2 CLR
23:07 -18.4 °C -19.5 °C 34577.8 hPa Calm     86 % 0 mm 0.0 W/m2 CLR
23:12 -18.4 °C -19.4 °C 34577.8 hPa Calm     87 % 0 mm 0.0 W/m2 CLR
23:17 -18.4 °C -19.5 °C 34577.8 hPa Calm     87 % 0 mm 0.0 W/m2 CLR
23:22 -18.5 °C -19.6 °C 34577.8 hPa Calm     87 % 0 mm 0.0 W/m2 CLR
23:27 -18.5 °C -19.6 °C 34577.8 hPa Calm     87 % 0 mm 0.0 W/m2 CLR
23:32 -18.6 °C -19.6 °C 34577.8 hPa Calm     87 % 0 mm 0.0 W/m2 CLR
23:37 -18.6 °C -19.5 °C 34577.8 hPa Calm     88 % 0 mm 0.0 W/m2 CLR
23:42 -18.6 °C -19.6 °C 34577.8 hPa Calm     88 % 0 mm 0.0 W/m2 CLR
23:47 -18.7 °C -19.6 °C 34577.8 hPa Calm     88 % 0 mm 0.0 W/m2 CLR
23:52 -18.7 °C -19.6 °C 34577.8 hPa Calm     88 % 0 mm 0.0 W/m2 CLR
23:57 -18.7 °C -19.6 °C 34577.8 hPa Calm     88 % 0 mm 0.0 W/m2 CLR
Lo Temps de Massalio
Compliments of Weather Underground - 1.25 mb